Time;durP1;ratioP1;P1;durP2;ratioP2;P2;SDS_P1;SDS_P2;PMS_P1;PMS_P2;Temp;Humidity;BMP_temperature;BMP_pressure;BME280_temperature;BME280_humidity;BME280_pressure;Samples;Min_cycle;Max_cycle;Signal;HPM_P1;HPM_P2
2022/05/14 00:00:43;;;;;;;21.00;14.25;;;28.50;99.90;;;;;;1793480;78;21148;-71
2022/05/14 00:03:14;;;;;;;21.95;14.07;;;28.50;99.90;;;;;;1777682;78;21210;-71
2022/05/14 00:05:46;;;;;;;21.30;14.73;;;28.50;99.90;;;;;;1786087;78;21240;-73
2022/05/14 00:08:17;;;;;;;24.02;14.35;;;28.50;99.90;;;;;;1780938;78;21188;-70
2022/05/14 00:13:21;;;;;;;19.50;13.15;;;28.50;99.90;;;;;;1762721;80;21238;-72
2022/05/14 00:15:53;;;;;;;17.98;12.73;;;28.60;99.90;;;;;;1756331;79;21763;-72
2022/05/14 00:18:24;;;;;;;18.95;12.47;;;28.60;99.90;;;;;;1746051;80;21246;-72
2022/05/14 00:20:55;;;;;;;19.48;12.85;;;28.60;99.90;;;;;;1734309;81;21189;-72
2022/05/14 00:23:28;;;;;;;19.50;12.70;;;28.60;99.90;;;;;;1759431;79;21243;-72
2022/05/14 00:25:59;;;;;;;20.20;11.90;;;28.60;99.90;;;;;;1750143;79;21210;-72
2022/05/14 00:28:30;;;;;;;19.30;12.18;;;28.70;99.90;;;;;;1761832;80;21170;-72
2022/05/14 00:31:01;;;;;;;17.50;11.50;;;28.70;99.90;;;;;;1736232;80;21195;-72
2022/05/14 00:33:32;;;;;;;16.87;10.75;;;28.70;99.90;;;;;;1760917;80;21190;-74
2022/05/14 00:36:04;;;;;;;17.82;10.72;;;28.70;99.80;;;;;;1790928;78;21629;-73
2022/05/14 00:38:35;;;;;;;13.60;10.35;;;28.80;99.60;;;;;;1788994;77;21708;-73
2022/05/14 00:41:09;;;;;;;19.82;10.88;;;28.90;99.20;;;;;;1793667;78;21192;-72
2022/05/14 00:43:42;;;;;;;15.35;10.23;;;28.90;99.40;;;;;;1765813;78;21787;-73
2022/05/14 00:46:16;;;;;;;15.65;10.82;;;28.90;99.00;;;;;;1762273;79;23118;-72
2022/05/14 00:48:48;;;;;;;21.17;11.33;;;29.00;98.90;;;;;;1767547;78;21280;-72
2022/05/14 00:51:25;;;;;;;18.65;10.98;;;29.10;98.90;;;;;;1773480;78;21147;-72
2022/05/14 00:53:56;;;;;;;13.93;10.88;;;29.20;98.90;;;;;;1755202;80;21215;-72
2022/05/14 00:56:29;;;;;;;14.80;10.18;;;29.30;98.60;;;;;;1754243;80;22120;-72
2022/05/14 00:59:06;;;;;;;13.85;9.65;;;29.40;98.70;;;;;;1744764;80;21700;-72
2022/05/14 01:01:39;;;;;;;16.25;9.98;;;29.50;98.70;;;;;;1781514;78;21738;-71
2022/05/14 01:04:11;;;;;;;14.38;10.05;;;29.70;98.10;;;;;;1789537;78;21569;-71
2022/05/14 01:06:44;;;;;;;16.05;9.90;;;29.80;97.70;;;;;;1805273;78;21240;-72
2022/05/14 01:09:15;;;;;;;15.35;9.03;;;29.90;97.30;;;;;;1768200;79;21607;-73
2022/05/14 01:11:46;;;;;;;18.45;10.85;;;29.90;97.30;;;;;;1781209;79;21206;-72
2022/05/14 01:14:17;;;;;;;19.65;10.82;;;29.90;97.10;;;;;;1779204;79;21275;-72
2022/05/14 01:16:50;;;;;;;13.88;9.85;;;30.00;96.90;;;;;;1788104;77;21205;-72
2022/05/14 01:19:21;;;;;;;12.82;9.60;;;30.00;97.30;;;;;;1767439;80;21693;-74
2022/05/14 01:21:54;;;;;;;14.33;9.63;;;29.90;96.80;;;;;;1784199;78;21265;-73
2022/05/14 01:27:00;;;;;;;14.90;8.58;;;29.90;96.80;;;;;;1748808;79;21136;-72
2022/05/14 01:29:31;;;;;;;15.55;9.05;;;29.90;97.00;;;;;;1720883;82;21957;-72
2022/05/14 01:32:02;;;;;;;14.23;9.38;;;30.00;97.00;;;;;;1762757;78;21150;-72
2022/05/14 01:34:35;;;;;;;13.38;8.60;;;30.10;96.80;;;;;;1783300;78;21179;-73
2022/05/14 01:37:06;;;;;;;17.27;10.10;;;30.20;96.30;;;;;;1796671;78;21739;-73
2022/05/14 01:39:38;;;;;;;14.33;9.10;;;30.20;96.30;;;;;;1798477;78;22187;-73
2022/05/14 01:42:09;;;;;;;14.00;8.88;;;30.30;96.20;;;;;;1791041;78;21338;-73
2022/05/14 01:44:42;;;;;;;15.23;9.28;;;30.40;96.30;;;;;;1760501;80;21182;-73
2022/05/14 01:47:13;;;;;;;13.65;8.85;;;30.50;95.90;;;;;;1792780;78;21645;-73
2022/05/14 01:49:44;;;;;;;15.95;9.40;;;30.50;95.70;;;;;;1787231;78;21644;-74
2022/05/14 01:52:15;;;;;;;14.43;9.70;;;30.60;96.00;;;;;;1791039;78;21330;-75
2022/05/14 01:54:46;;;;;;;16.62;8.80;;;30.70;95.60;;;;;;1746863;79;21183;-74
2022/05/14 01:57:16;;;;;;;12.60;8.63;;;30.80;95.20;;;;;;1752218;79;21200;-74
2022/05/14 01:59:48;;;;;;;12.18;9.20;;;30.90;95.20;;;;;;1749982;80;21202;-73
2022/05/14 02:02:18;;;;;;;17.05;8.90;;;31.00;95.00;;;;;;1759318;79;21174;-73
2022/05/14 02:04:50;;;;;;;11.35;8.78;;;31.10;94.90;;;;;;1784648;78;21617;-73
2022/05/14 02:07:21;;;;;;;15.38;8.90;;;31.20;95.10;;;;;;1745322;80;21595;-73
2022/05/14 02:09:52;;;;;;;16.35;9.18;;;31.20;94.70;;;;;;1764808;79;21756;-73
2022/05/14 02:12:23;;;;;;;14.63;9.15;;;31.40;94.50;;;;;;1800861;78;21198;-73
2022/05/14 02:14:53;;;;;;;17.35;9.68;;;31.50;94.20;;;;;;1755344;79;21190;-73
2022/05/14 02:17:24;;;;;;;17.65;8.48;;;31.60;94.10;;;;;;1756933;80;22327;-73
2022/05/14 02:19:56;;;;;;;11.85;7.78;;;31.60;94.00;;;;;;1753175;79;21743;-72
2022/05/14 02:22:27;;;;;;;12.40;8.23;;;31.70;93.30;;;;;;1773203;78;21322;-72
2022/05/14 02:24:58;;;;;;;15.03;9.08;;;31.70;93.30;;;;;;1770591;79;21582;-72
2022/05/14 02:27:29;;;;;;;10.93;7.53;;;31.70;93.10;;;;;;1777969;79;21267;-72
2022/05/14 02:30:00;;;;;;;11.93;8.05;;;31.70;92.70;;;;;;1776103;78;21228;-72
2022/05/14 02:32:31;;;;;;;11.33;8.05;;;31.70;92.80;;;;;;1798467;79;21264;-72
2022/05/14 02:35:03;;;;;;;13.45;7.55;;;31.80;92.80;;;;;;1797456;79;21631;-72
2022/05/14 02:37:34;;;;;;;11.88;7.83;;;31.80;92.80;;;;;;1784117;79;21761;-71
2022/05/14 02:40:06;;;;;;;15.95;8.13;;;31.80;92.50;;;;;;1777976;79;22750;-72
2022/05/14 02:42:38;;;;;;;16.07;9.38;;;32.00;92.90;;;;;;1788439;78;21124;-72
2022/05/14 02:45:10;;;;;;;14.55;8.00;;;32.10;92.90;;;;;;1772664;79;21826;-71
2022/05/14 02:47:42;;;;;;;11.38;7.65;;;32.20;92.30;;;;;;1752902;78;21255;-71
2022/05/14 02:50:14;;;;;;;11.83;7.53;;;32.20;92.70;;;;;;1766434;78;21190;-73
2022/05/14 02:52:44;;;;;;;13.58;8.95;;;32.20;92.40;;;;;;1804562;78;21127;-73
2022/05/14 02:55:15;;;;;;;15.55;8.25;;;32.30;92.40;;;;;;1768311;80;21337;-73
2022/05/14 02:57:46;;;;;;;14.38;8.43;;;32.40;92.30;;;;;;1816491;78;21154;-71
2022/05/14 03:00:20;;;;;;;10.90;7.40;;;32.50;92.30;;;;;;1801786;77;21216;-71
2022/05/14 03:02:51;;;;;;;15.30;8.40;;;32.50;91.70;;;;;;1753977;79;21178;-73
2022/05/14 03:05:24;;;;;;;14.65;7.42;;;32.60;91.60;;;;;;1814466;78;21173;-74
2022/05/14 03:07:55;;;;;;;12.65;8.18;;;32.60;91.40;;;;;;1806286;78;21201;-74
2022/05/14 03:10:26;;;;;;;11.38;7.78;;;32.70;91.70;;;;;;1789306;78;21629;-71
2022/05/14 03:12:57;;;;;;;13.03;7.83;;;32.80;91.50;;;;;;1775025;78;21116;-73
2022/05/14 03:15:28;;;;;;;13.25;8.13;;;32.90;91.60;;;;;;1803164;77;21248;-72
2022/05/14 03:17:59;;;;;;;13.25;7.50;;;32.90;91.50;;;;;;1768064;80;21621;-72
2022/05/14 03:20:30;;;;;;;13.35;7.87;;;33.00;91.40;;;;;;1783842;78;21186;-72
2022/05/14 03:23:01;;;;;;;13.58;7.85;;;33.00;91.00;;;;;;1767017;79;21118;-72
2022/05/14 03:25:32;;;;;;;14.03;8.18;;;33.00;90.70;;;;;;1731173;81;21180;-73
2022/05/14 03:28:03;;;;;;;10.05;7.20;;;33.00;91.00;;;;;;1737724;80;21723;-72
2022/05/14 03:30:34;;;;;;;13.45;7.65;;;33.00;90.70;;;;;;1727290;80;21713;-73
2022/05/14 03:33:05;;;;;;;10.08;7.25;;;33.00;90.60;;;;;;1787931;78;21726;-73
2022/05/14 03:35:36;;;;;;;11.53;8.03;;;33.10;90.80;;;;;;1775383;78;21292;-73
2022/05/14 03:38:07;;;;;;;12.20;7.37;;;33.10;90.80;;;;;;1783489;78;21243;-73
2022/05/14 03:40:38;;;;;;;17.77;7.87;;;33.10;90.80;;;;;;1747632;80;21190;-74
2022/05/14 03:43:09;;;;;;;14.73;7.53;;;33.00;90.80;;;;;;1761388;79;21721;-74
2022/05/14 03:45:40;;;;;;;11.35;7.80;;;33.10;90.90;;;;;;1764641;79;21688;-74
2022/05/14 03:48:11;;;;;;;11.93;7.65;;;33.20;89.70;;;;;;1789175;78;21842;-74
2022/05/14 03:50:42;;;;;;;11.93;7.40;;;33.30;90.30;;;;;;1788173;78;21358;-74
2022/05/14 03:53:13;;;;;;;12.65;7.75;;;33.30;90.10;;;;;;1779057;78;21166;-74
2022/05/14 03:55:44;;;;;;;11.38;7.70;;;33.40;90.30;;;;;;1790371;78;21181;-73
2022/05/14 03:58:15;;;;;;;11.05;7.50;;;33.50;89.40;;;;;;1710968;80;21227;-74
2022/05/14 04:00:46;;;;;;;14.55;7.97;;;33.40;90.10;;;;;;1785943;78;21206;-75
2022/05/14 04:03:18;;;;;;;13.22;7.87;;;33.40;89.90;;;;;;1721904;81;21661;-75
2022/05/14 04:05:49;;;;;;;11.60;6.97;;;33.50;89.00;;;;;;1748250;79;21213;-72
2022/05/14 04:08:20;;;;;;;14.95;7.97;;;33.40;89.70;;;;;;1750998;79;21245;-74
2022/05/14 04:10:51;;;;;;;12.80;7.20;;;33.30;89.90;;;;;;1737532;81;21280;-73
2022/05/14 04:13:22;;;;;;;13.10;7.20;;;33.30;90.10;;;;;;1749279;79;21242;-74
2022/05/14 04:15:53;;;;;;;10.28;7.10;;;33.30;90.10;;;;;;1778746;78;21163;-73
2022/05/14 04:18:27;;;;;;;11.70;7.22;;;33.30;89.20;;;;;;1794531;78;21267;-71
2022/05/14 04:20:58;;;;;;;10.85;7.20;;;33.30;89.70;;;;;;1763755;78;21764;-71
2022/05/14 04:23:32;;;;;;;10.08;6.60;;;33.40;90.10;;;;;;1781988;78;21726;-73
2022/05/14 04:26:04;;;;;;;12.10;6.85;;;33.40;89.80;;;;;;1785191;78;21213;-73
2022/05/14 04:28:35;;;;;;;12.58;6.80;;;33.50;87.10;;;;;;1788207;78;21167;-72
2022/05/14 04:31:05;;;;;;;11.08;7.70;;;33.50;87.10;;;;;;1798593;78;21182;-73
2022/05/14 04:33:37;;;;;;;17.95;7.47;;;33.50;87.60;;;;;;1784541;78;21579;-74
2022/05/14 04:36:08;;;;;;;11.25;6.95;;;33.50;87.30;;;;;;1777342;79;21118;-72
2022/05/14 04:38:40;;;;;;;9.23;6.28;;;33.40;87.50;;;;;;1780847;79;21232;-73
2022/05/14 04:41:12;;;;;;;11.55;6.55;;;33.40;88.50;;;;;;1791187;78;21186;-73
2022/05/14 04:43:42;;;;;;;11.25;6.50;;;33.30;87.40;;;;;;1759900;79;21254;-72
2022/05/14 04:46:13;;;;;;;9.53;6.05;;;33.40;87.70;;;;;;1741830;80;21232;-73
2022/05/14 04:48:44;;;;;;;11.50;6.50;;;33.50;86.90;;;;;;1759185;80;21221;-73
2022/05/14 04:51:15;;;;;;;13.55;6.05;;;33.60;85.70;;;;;;1750346;81;21640;-73
2022/05/14 04:53:46;;;;;;;11.18;6.50;;;33.80;85.30;;;;;;1735326;81;21656;-73
2022/05/14 04:56:17;;;;;;;11.25;6.47;;;33.90;85.00;;;;;;1740186;80;21304;-75
2022/05/14 04:58:48;;;;;;;10.03;5.47;;;34.00;84.90;;;;;;1773854;80;21626;-74
2022/05/14 05:04:05;;;;;;;7.83;5.35;;;34.20;83.40;;;;;;1843514;76;21154;-74
2022/05/14 05:06:36;;;;;;;12.10;5.67;;;34.30;84.80;;;;;;1835278;76;21646;-73
2022/05/14 05:09:07;;;;;;;10.00;5.40;;;34.40;82.70;;;;;;1913564;74;21147;-72
2022/05/14 05:11:37;;;;;;;8.95;5.08;;;34.50;82.90;;;;;;1925480;73;21064;-74
2022/05/14 05:14:09;;;;;;;8.50;5.15;;;34.60;81.50;;;;;;1911698;74;21607;-74
2022/05/14 05:16:40;;;;;;;7.67;5.50;;;34.60;81.30;;;;;;1919605;73;21787;-72
2022/05/14 05:19:11;;;;;;;10.28;5.40;;;34.60;81.90;;;;;;1855608;76;22476;-73
2022/05/14 05:21:42;;;;;;;9.05;5.30;;;34.70;80.90;;;;;;1910937;73;21193;-73
2022/05/14 05:24:14;;;;;;;10.38;5.47;;;34.80;80.60;;;;;;1926216;73;21428;-74
2022/05/14 05:26:45;;;;;;;10.80;5.40;;;34.80;81.70;;;;;;1892046;75;21166;-74
2022/05/14 05:29:16;;;;;;;7.85;5.25;;;34.90;82.30;;;;;;1861111;75;21147;-72
2022/05/14 05:31:46;;;;;;;10.32;5.95;;;35.00;79.70;;;;;;1847232;76;21542;-72
2022/05/14 05:34:18;;;;;;;11.20;5.35;;;35.00;78.60;;;;;;1887296;75;21213;-72
2022/05/14 05:36:49;;;;;;;10.43;5.70;;;35.00;78.90;;;;;;1843477;76;21197;-72
2022/05/14 05:39:21;;;;;;;8.93;5.03;;;35.10;79.20;;;;;;1907688;73;21187;-72
2022/05/14 05:41:52;;;;;;;7.05;4.55;;;35.10;76.60;;;;;;1929868;73;21127;-71
2022/05/14 05:44:26;;;;;;;11.20;5.28;;;35.10;76.50;;;;;;1932099;73;21561;-72
2022/05/14 05:46:57;;;;;;;8.70;5.60;;;35.10;76.30;;;;;;1934026;74;21182;-71
2022/05/14 05:49:28;;;;;;;12.10;5.10;;;35.10;76.50;;;;;;1900822;74;21643;-72
2022/05/14 05:51:59;;;;;;;8.90;4.33;;;35.10;74.50;;;;;;1907376;74;21607;-72
2022/05/14 05:57:03;;;;;;;7.25;3.77;;;35.10;73.80;;;;;;1909131;73;21090;-72
2022/05/14 05:59:34;;;;;;;9.25;4.45;;;35.00;73.40;;;;;;1912933;73;21452;-71
2022/05/14 06:02:08;;;;;;;11.38;4.53;;;35.00;76.90;;;;;;1897001;73;21142;-72
2022/05/14 06:04:39;;;;;;;9.10;4.75;;;35.00;73.10;;;;;;1929081;73;21595;-72
2022/05/14 06:07:10;;;;;;;8.50;4.85;;;35.00;75.00;;;;;;1886899;75;21626;-71
2022/05/14 06:09:41;;;;;;;12.15;4.92;;;34.90;77.40;;;;;;1905086;73;21170;-72
2022/05/14 06:12:13;;;;;;;10.18;5.17;;;34.90;75.50;;;;;;1933395;74;21107;-70
2022/05/14 06:14:45;;;;;;;8.65;4.40;;;34.90;75.10;;;;;;1937375;73;21201;-72
2022/05/14 06:17:16;;;;;;;7.15;4.28;;;34.80;75.00;;;;;;1940130;74;21049;-72
2022/05/14 06:19:48;;;;;;;9.93;4.87;;;34.80;77.10;;;;;;1925588;74;21209;-72
2022/05/14 06:22:21;;;;;;;9.08;4.95;;;34.80;74.30;;;;;;1893851;75;21684;-71
2022/05/14 06:24:53;;;;;;;7.97;4.35;;;34.70;75.10;;;;;;1912032;73;21692;-71
2022/05/14 06:27:23;;;;;;;7.45;4.42;;;34.70;74.70;;;;;;1923181;73;21592;-71
2022/05/14 06:29:54;;;;;;;9.43;5.25;;;34.60;73.60;;;;;;1928260;73;21163;-71
2022/05/14 06:32:26;;;;;;;6.45;4.72;;;34.50;74.70;;;;;;1906931;73;21214;-71
2022/05/14 06:34:56;;;;;;;7.53;5.15;;;34.50;74.40;;;;;;1923110;73;21175;-71
2022/05/14 06:37:28;;;;;;;11.43;5.15;;;34.40;76.80;;;;;;1933412;74;21123;-71
2022/05/14 06:39:59;;;;;;;8.48;5.12;;;34.30;75.50;;;;;;1937565;74;21173;-72
2022/05/14 06:42:30;;;;;;;10.25;5.12;;;34.30;75.60;;;;;;1936474;74;21080;-72
2022/05/14 06:45:02;;;;;;;9.95;5.20;;;34.20;76.20;;;;;;1915928;74;21161;-72
2022/05/14 06:47:33;;;;;;;8.88;4.92;;;34.20;74.60;;;;;;1899440;74;21049;-70
2022/05/14 06:50:05;;;;;;;8.53;4.90;;;34.20;74.70;;;;;;1878999;76;21164;-70
2022/05/14 06:52:37;;;;;;;7.80;4.42;;;34.20;74.10;;;;;;1881326;76;21459;-71
2022/05/14 06:55:09;;;;;;;8.23;4.55;;;34.20;75.00;;;;;;1883253;76;21199;-71
2022/05/14 06:57:42;;;;;;;12.65;4.67;;;34.20;74.50;;;;;;1879867;75;21085;-72
2022/05/14 07:00:14;;;;;;;9.50;4.85;;;34.10;74.10;;;;;;1912639;75;21648;-70
2022/05/14 07:02:48;;;;;;;6.72;5.00;;;34.10;75.90;;;;;;1917448;74;21123;-71
2022/05/14 07:07:53;;;;;;;9.45;4.80;;;34.00;76.10;;;;;;1907073;74;21532;-72
2022/05/14 07:10:24;;;;;;;7.10;4.67;;;34.00;76.10;;;;;;1900648;75;21190;-71
2022/05/14 07:12:56;;;;;;;14.10;6.10;;;33.90;76.10;;;;;;1896107;75;21123;-71
2022/05/14 07:15:27;;;;;;;11.73;5.00;;;33.90;77.40;;;;;;1900433;75;21665;-71
2022/05/14 07:17:58;;;;;;;9.90;4.05;;;33.80;79.10;;;;;;1896520;75;21795;-71
2022/05/14 07:20:29;;;;;;;8.63;3.05;;;33.50;80.30;;;;;;1896656;75;21190;-72
2022/05/14 07:23:01;;;;;;;12.33;3.42;;;33.00;81.80;;;;;;1897619;75;21650;-72
2022/05/14 07:25:32;;;;;;;11.20;2.77;;;32.40;83.00;;;;;;1901492;75;21143;-71
2022/05/14 07:28:03;;;;;;;7.65;2.60;;;32.10;84.40;;;;;;1905908;73;21253;-72
2022/05/14 07:30:34;;;;;;;7.92;2.50;;;31.80;85.40;;;;;;1906003;75;21186;-72
2022/05/14 07:33:05;;;;;;;7.60;3.00;;;31.70;86.40;;;;;;1906036;74;21112;-72
2022/05/14 07:35:38;;;;;;;5.03;2.50;;;31.60;87.10;;;;;;1910380;74;21870;-71
2022/05/14 07:38:09;;;;;;;6.78;3.27;;;31.50;87.30;;;;;;1910642;74;21158;-72
2022/05/14 07:40:41;;;;;;;9.23;3.12;;;31.50;87.70;;;;;;1912150;74;21147;-72
2022/05/14 07:43:16;;;;;;;7.22;3.33;;;31.50;87.80;;;;;;1906040;74;21543;-72
2022/05/14 07:45:49;;;;;;;9.85;3.40;;;31.40;88.20;;;;;;1896205;75;21252;-72
2022/05/14 07:48:22;;;;;;;8.53;3.33;;;31.40;89.10;;;;;;1896081;75;21163;-71
2022/05/14 07:50:53;;;;;;;7.10;3.22;;;31.30;88.40;;;;;;1904928;75;21135;-71
2022/05/14 07:53:43;;;;;;;6.40;3.77;;;31.30;88.90;;;;;;1904825;73;21068;-71
2022/05/14 07:56:14;;;;;;;6.83;3.95;;;31.20;89.50;;;;;;1866104;75;21108;-72
2022/05/14 07:58:47;;;;;;;6.28;3.60;;;31.00;90.30;;;;;;1832172;77;21222;-71
2022/05/14 08:01:20;;;;;;;12.37;4.92;;;30.80;90.50;;;;;;1872504;76;21618;-71
2022/05/14 08:03:51;;;;;;;11.20;5.00;;;30.60;91.20;;;;;;1875620;76;21095;-71
2022/05/14 08:06:22;;;;;;;11.73;4.35;;;30.50;93.00;;;;;;1863926;76;21154;-71
2022/05/14 08:08:55;;;;;;;8.35;4.35;;;30.20;94.60;;;;;;1875223;76;21575;-71
2022/05/14 08:11:27;;;;;;;6.83;3.62;;;30.10;94.80;;;;;;1844411;77;21561;-72
2022/05/14 08:14:01;;;;;;;6.78;4.15;;;30.00;96.10;;;;;;1840658;77;21087;-72
2022/05/14 08:16:32;;;;;;;12.30;4.72;;;30.10;98.30;;;;;;1835589;77;21193;-72
2022/05/14 08:19:03;;;;;;;10.72;4.75;;;29.80;99.90;;;;;;1840570;76;21170;-71
2022/05/14 08:26:44;;;;;;;14.45;6.10;;;29.50;99.90;;;;;;1866500;76;21169;-73
2022/05/14 08:29:15;;;;;;;10.35;4.65;;;29.30;99.90;;;;;;1862550;75;21115;-73
2022/05/14 08:31:46;;;;;;;12.93;5.55;;;29.20;95.30;;;;;;1878318;75;21182;-73
2022/05/14 08:34:18;;;;;;;9.18;4.67;;;29.10;97.20;;;;;;1870557;76;21426;-73
2022/05/14 08:36:49;;;;;;;12.03;6.00;;;29.10;97.30;;;;;;1868765;76;21602;-73
2022/05/14 08:39:20;;;;;;;10.03;4.45;;;29.10;97.80;;;;;;1869978;75;21143;-72
2022/05/14 08:41:53;;;;;;;10.30;4.58;;;29.20;98.10;;;;;;1863878;76;21613;-72
2022/05/14 08:44:27;;;;;;;11.18;4.72;;;29.20;98.20;;;;;;1858473;76;21987;-73
2022/05/14 08:47:03;;;;;;;11.20;4.35;;;29.30;98.20;;;;;;1801565;79;21178;-74
2022/05/14 08:49:36;;;;;;;10.93;4.85;;;29.30;98.20;;;;;;1877510;75;21570;-73
2022/05/14 08:52:09;;;;;;;14.07;5.25;;;29.30;97.90;;;;;;1871121;76;21214;-72
2022/05/14 08:54:41;;;;;;;8.40;4.12;;;29.30;98.20;;;;;;1880839;75;21655;-72
2022/05/14 08:57:17;;;;;;;9.18;4.53;;;29.40;98.00;;;;;;1867990;75;21650;-72
2022/05/14 08:59:52;;;;;;;10.88;4.90;;;29.30;97.60;;;;;;1881711;75;21566;-72
2022/05/14 09:02:27;;;;;;;9.45;4.30;;;29.40;97.10;;;;;;1845322;76;21139;-72
2022/05/14 09:05:00;;;;;;;8.40;4.80;;;29.30;97.10;;;;;;1803957;78;21544;-82
2022/05/14 09:07:32;;;;;;;8.75;4.75;;;29.40;97.30;;;;;;1830874;76;21695;-81
2022/05/14 09:10:07;;;;;;;11.25;4.50;;;29.30;96.60;;;;;;1828913;76;21206;-81
2022/05/14 09:12:42;;;;;;;11.38;4.78;;;29.30;96.80;;;;;;1849779;76;21182;-81
2022/05/14 09:15:15;;;;;;;13.78;6.33;;;29.30;96.80;;;;;;1870008;75;21134;-81
2022/05/14 09:17:49;;;;;;;7.92;4.87;;;29.30;97.10;;;;;;1858678;76;21148;-80
2022/05/14 09:20:22;;;;;;;10.93;6.45;;;29.40;97.30;;;;;;1805703;79;21163;-81
2022/05/14 09:22:58;;;;;;;11.65;6.10;;;29.30;96.50;;;;;;1848262;76;21236;-81
2022/05/14 09:25:32;;;;;;;13.18;7.10;;;29.30;97.20;;;;;;1798381;78;21261;-80
2022/05/14 09:28:06;;;;;;;15.08;7.50;;;29.20;97.70;;;;;;1830813;77;21142;-80
2022/05/14 09:30:39;;;;;;;18.05;7.87;;;29.20;98.00;;;;;;1865261;76;21222;-82
2022/05/14 09:33:13;;;;;;;14.78;6.97;;;29.10;97.90;;;;;;1858918;75;21071;-81
2022/05/14 09:35:45;;;;;;;11.33;6.35;;;29.20;97.80;;;;;;1864503;75;21170;-80
2022/05/14 09:38:18;;;;;;;19.67;6.62;;;29.10;97.90;;;;;;1861399;75;21197;-81
2022/05/14 09:40:51;;;;;;;15.78;5.65;;;29.10;97.90;;;;;;1885848;75;21087;-80
2022/05/14 09:43:30;;;;;;;12.80;5.40;;;29.00;97.90;;;;;;1871924;75;21170;-79
2022/05/14 09:46:12;;;;;;;10.63;4.92;;;29.00;98.10;;;;;;1841678;77;21143;-81
2022/05/14 09:48:48;;;;;;;8.95;5.00;;;29.00;98.50;;;;;;1829451;76;21152;-81
2022/05/14 09:51:25;;;;;;;10.40;5.37;;;29.00;98.30;;;;;;1845205;77;21174;-81
2022/05/14 09:54:00;;;;;;;14.28;5.72;;;29.00;98.50;;;;;;1804614;77;21151;-81
2022/05/14 09:56:38;;;;;;;12.93;6.33;;;28.90;98.10;;;;;;1833515;77;21135;-81
2022/05/14 09:59:11;;;;;;;12.33;6.83;;;28.90;98.40;;;;;;1770218;80;21272;-81
2022/05/14 10:01:46;;;;;;;11.63;6.22;;;28.80;98.60;;;;;;1819310;77;21159;-81
2022/05/14 10:04:20;;;;;;;7.83;5.27;;;28.80;98.90;;;;;;1808362;78;21640;-81
2022/05/14 10:06:59;;;;;;;9.23;4.75;;;28.80;98.60;;;;;;1901078;74;21678;-81
2022/05/14 10:09:32;;;;;;;14.07;4.78;;;28.60;97.70;;;;;;1883252;74;21217;-81
2022/05/14 10:12:05;;;;;;;7.58;4.62;;;28.60;98.50;;;;;;1877953;74;21240;-82
2022/05/14 10:14:46;;;;;;;10.10;4.15;;;28.60;98.80;;;;;;1875043;74;21093;-81
2022/05/14 10:17:19;;;;;;;9.75;4.80;;;28.60;98.60;;;;;;1880552;75;21103;-82
2022/05/14 10:19:52;;;;;;;7.33;3.92;;;28.50;98.70;;;;;;1833491;77;21111;-80
2022/05/14 10:22:26;;;;;;;8.50;4.97;;;28.70;98.70;;;;;;1830136;78;21175;-81
2022/05/14 10:27:41;;;;;;;10.18;5.28;;;28.80;98.20;;;;;;1862682;74;21165;-80
2022/05/14 10:30:16;;;;;;;10.90;5.22;;;28.80;98.50;;;;;;1854743;76;21257;-81
2022/05/14 10:32:49;;;;;;;10.38;5.67;;;28.80;98.50;;;;;;1874038;75;21182;-81
2022/05/14 10:35:24;;;;;;;10.48;5.37;;;28.80;98.40;;;;;;1875730;75;21569;-79
2022/05/14 10:38:18;;;;;;;8.35;5.08;;;28.80;98.50;;;;;;1859953;76;21100;-80
2022/05/14 10:40:51;;;;;;;8.35;6.50;;;28.90;98.70;;;;;;1823229;77;21167;-81
2022/05/14 10:43:25;;;;;;;15.15;6.33;;;28.90;98.60;;;;;;1801228;79;21168;-79
2022/05/14 10:45:58;;;;;;;12.90;4.97;;;28.90;98.30;;;;;;1828933;78;21108;-80
2022/05/14 10:48:32;;;;;;;11.57;4.53;;;28.90;97.80;;;;;;1850422;77;21150;-81
2022/05/14 10:51:05;;;;;;;9.95;4.45;;;28.90;97.90;;;;;;1836170;77;21202;-80
2022/05/14 10:53:37;;;;;;;7.10;4.25;;;28.90;97.90;;;;;;1866214;76;21091;-81
2022/05/14 10:56:11;;;;;;;11.30;4.53;;;29.00;97.80;;;;;;1871511;76;21181;-81
2022/05/14 10:58:45;;;;;;;8.80;4.03;;;29.00;97.80;;;;;;1872032;76;21084;-80
2022/05/14 11:01:19;;;;;;;9.43;4.62;;;29.00;97.70;;;;;;1863612;76;21206;-80
2022/05/14 11:03:52;;;;;;;9.58;4.50;;;29.00;97.70;;;;;;1847026;74;21174;-80
2022/05/14 11:06:27;;;;;;;12.70;4.05;;;28.90;97.60;;;;;;1885344;74;21193;-80
2022/05/14 11:08:58;;;;;;;10.03;4.30;;;28.90;97.80;;;;;;1842766;77;21665;-80
2022/05/14 11:11:32;;;;;;;10.90;4.53;;;28.90;97.90;;;;;;1832386;77;21150;-80
2022/05/14 11:14:06;;;;;;;11.83;3.90;;;28.90;98.10;;;;;;1830198;77;21138;-81
2022/05/14 11:16:40;;;;;;;14.63;5.60;;;28.90;97.90;;;;;;1836928;77;21253;-81
2022/05/14 11:19:13;;;;;;;10.30;5.20;;;28.80;98.10;;;;;;1865132;75;21205;-82
2022/05/14 11:21:47;;;;;;;8.83;4.40;;;28.80;98.10;;;;;;1881284;75;21065;-81
2022/05/14 11:24:18;;;;;;;10.35;5.03;;;28.80;98.10;;;;;;1883104;75;21613;-80
2022/05/14 11:26:54;;;;;;;10.03;4.30;;;28.80;97.80;;;;;;1881700;74;21200;-80
2022/05/14 11:29:28;;;;;;;7.33;4.20;;;28.70;97.90;;;;;;1888112;75;21149;-80
2022/05/14 11:32:02;;;;;;;9.53;5.00;;;28.70;97.70;;;;;;1818490;77;21266;-81
2022/05/14 11:34:34;;;;;;;10.23;5.15;;;28.60;98.00;;;;;;1807028;77;21190;-80
2022/05/14 11:37:07;;;;;;;9.38;5.10;;;28.60;98.10;;;;;;1800133;79;21164;-81
2022/05/14 11:39:39;;;;;;;8.18;4.95;;;28.60;98.10;;;;;;1804422;79;21201;-81
2022/05/14 11:42:13;;;;;;;9.35;5.22;;;28.50;98.30;;;;;;1796204;79;21256;-81
2022/05/14 11:44:47;;;;;;;12.05;6.33;;;28.50;98.50;;;;;;1883939;75;21069;-80
2022/05/14 11:47:20;;;;;;;13.50;5.90;;;28.50;98.30;;;;;;1868456;75;21151;-81
2022/05/14 11:49:53;;;;;;;6.97;4.72;;;28.40;98.30;;;;;;1862534;75;21139;-80
2022/05/14 11:52:26;;;;;;;9.00;4.85;;;28.40;98.40;;;;;;1884139;75;21085;-81
2022/05/14 11:54:59;;;;;;;8.90;4.40;;;28.50;99.90;;;;;;1890912;74;21111;-81
2022/05/14 11:57:33;;;;;;;7.80;4.53;;;28.40;99.90;;;;;;1883414;74;21084;-81
2022/05/14 12:00:06;;;;;;;11.00;5.35;;;28.50;99.90;;;;;;1889753;74;21182;-81
2022/05/14 12:02:41;;;;;;;9.28;4.92;;;28.30;99.90;;;;;;1883908;74;21617;-81
2022/05/14 12:05:18;;;;;;;7.85;4.42;;;28.30;99.90;;;;;;1880084;73;21147;-81
2022/05/14 12:07:51;;;;;;;8.48;4.60;;;28.40;99.90;;;;;;1873372;75;21117;-81
2022/05/14 12:10:24;;;;;;;9.00;4.15;;;28.20;99.90;;;;;;1879612;75;21210;-80
2022/05/14 12:12:58;;;;;;;7.72;4.50;;;28.30;99.90;;;;;;1905428;75;21130;-81
2022/05/14 12:15:32;;;;;;;8.83;4.50;;;28.30;99.90;;;;;;1912873;75;21205;-80
2022/05/14 12:18:03;;;;;;;6.25;4.05;;;28.20;99.90;;;;;;1829170;78;21099;-81
2022/05/14 12:20:36;;;;;;;8.93;4.53;;;28.20;99.90;;;;;;1912092;75;21126;-81
2022/05/14 12:23:14;;;;;;;7.65;4.30;;;28.20;99.90;;;;;;1913398;75;21111;-81
2022/05/14 12:25:45;;;;;;;10.05;5.47;;;28.20;99.90;;;;;;1913113;75;21072;-80
2022/05/14 12:28:19;;;;;;;12.25;5.80;;;28.20;99.90;;;;;;1913344;75;21088;-80
2022/05/14 12:33:25;;;;;;;10.65;5.12;;;28.20;99.90;;;;;;1912700;75;21096;-81
2022/05/14 12:35:58;;;;;;;12.15;4.90;;;28.20;99.90;;;;;;1913031;75;21064;-79
2022/05/14 12:38:32;;;;;;;7.50;4.92;;;28.00;99.90;;;;;;1913339;75;21205;-80
2022/05/14 12:41:05;;;;;;;10.43;5.70;;;28.10;99.90;;;;;;1913350;75;21076;-80
2022/05/14 12:43:36;;;;;;;8.70;5.15;;;28.20;99.90;;;;;;1913164;75;21142;-81
2022/05/14 12:46:10;;;;;;;9.58;5.35;;;28.10;99.90;;;;;;1912730;75;21582;-81
2022/05/14 12:48:43;;;;;;;10.90;5.45;;;28.10;99.90;;;;;;1913129;75;21181;-81
2022/05/14 12:51:17;;;;;;;11.40;5.75;;;28.20;99.90;;;;;;1913324;75;21103;-81
2022/05/14 12:53:48;;;;;;;10.05;6.80;;;28.10;99.90;;;;;;1912403;75;21067;-82
2022/05/14 12:56:21;;;;;;;11.78;6.10;;;28.10;99.90;;;;;;1913386;75;21080;-81
2022/05/14 12:58:53;;;;;;;11.83;6.65;;;28.00;99.90;;;;;;1896124;75;21147;-81
2022/05/14 13:01:31;;;;;;;10.80;6.72;;;28.20;99.90;;;;;;1899128;75;21100;-81
2022/05/14 13:04:03;;;;;;;13.10;7.17;;;28.10;99.90;;;;;;1819641;77;21105;-81
2022/05/14 13:06:36;;;;;;;12.07;7.00;;;28.00;99.90;;;;;;1894806;74;21141;-80
2022/05/14 13:09:10;;;;;;;11.73;7.17;;;28.20;99.90;;;;;;1890144;75;21138;-81
2022/05/14 13:11:43;;;;;;;12.45;7.50;;;28.10;99.90;;;;;;1881590;75;21212;-82
2022/05/14 13:14:17;;;;;;;9.63;6.95;;;28.10;99.90;;;;;;1895762;75;21225;-80
2022/05/14 13:16:50;;;;;;;12.30;6.87;;;28.20;99.90;;;;;;1892717;75;21082;-81
2022/05/14 13:19:23;;;;;;;13.10;6.72;;;28.10;99.90;;;;;;1874919;76;21171;-81
2022/05/14 13:21:56;;;;;;;16.07;6.80;;;28.00;99.90;;;;;;1870870;76;21252;-80
2022/05/14 13:24:31;;;;;;;11.43;6.95;;;28.00;99.90;;;;;;1851748;76;21139;-81
2022/05/14 13:27:09;;;;;;;11.38;6.90;;;28.20;99.90;;;;;;1881660;75;21629;-80